createdAt,value
2023-01-06T00:00:32.586Z,11.2
2023-01-06T00:01:32.508Z,11.2
2023-01-06T00:02:32.560Z,11.2
2023-01-06T00:03:32.489Z,11.2
2023-01-06T00:04:32.583Z,11.2
2023-01-06T00:05:32.515Z,11.3
2023-01-06T00:06:32.507Z,11.3
2023-01-06T00:07:32.493Z,11.3
2023-01-06T00:08:32.516Z,11.2
2023-01-06T00:09:32.505Z,11.2
2023-01-06T00:10:32.498Z,11.2
2023-01-06T00:11:32.536Z,11.2
2023-01-06T00:12:32.503Z,11.2
2023-01-06T00:13:32.613Z,11.2
2023-01-06T00:14:32.487Z,11.2
2023-01-06T00:15:32.552Z,11.2
2023-01-06T00:16:32.493Z,11.2
2023-01-06T00:17:32.493Z,11.2
2023-01-06T00:18:32.487Z,11.2
2023-01-06T00:19:32.505Z,11.1
2023-01-06T00:20:32.495Z,11.2
2023-01-06T00:21:32.488Z,11.1
2023-01-06T00:22:32.490Z,11.2
2023-01-06T00:23:32.523Z,11.2
2023-01-06T00:24:32.508Z,11.1
2023-01-06T00:25:32.479Z,11.2
2023-01-06T00:26:32.497Z,11.1
2023-01-06T00:27:32.492Z,11.1
2023-01-06T00:28:34.479Z,11.1
2023-01-06T00:29:32.511Z,11.1
2023-01-06T00:30:32.501Z,11.1
2023-01-06T00:31:32.553Z,11.2
2023-01-06T00:32:32.504Z,11.2
2023-01-06T00:33:32.501Z,11.1
2023-01-06T00:34:32.507Z,11.1
2023-01-06T00:35:32.478Z,11.1
2023-01-06T00:36:32.503Z,11.1
2023-01-06T00:37:32.505Z,11.1
2023-01-06T00:38:32.505Z,11.1
2023-01-06T00:39:32.495Z,11.1
2023-01-06T00:40:32.507Z,11.1
2023-01-06T00:41:32.499Z,11.1
2023-01-06T00:42:32.514Z,11.1
2023-01-06T00:43:32.531Z,11.1
2023-01-06T00:44:32.607Z,11
2023-01-06T00:45:32.496Z,11.1
2023-01-06T00:46:32.602Z,11.1
2023-01-06T00:47:32.505Z,11.1
2023-01-06T00:48:32.499Z,11.1
2023-01-06T00:49:32.576Z,11.1
2023-01-06T00:50:32.491Z,11.1
2023-01-06T00:51:32.520Z,11.1
2023-01-06T00:52:32.523Z,11.1
2023-01-06T00:53:32.514Z,11.1
2023-01-06T00:54:32.537Z,11.1
2023-01-06T00:55:32.559Z,11
2023-01-06T00:56:32.504Z,11
2023-01-06T00:57:32.491Z,11
2023-01-06T00:58:32.501Z,11
2023-01-06T00:59:32.639Z,11.1
2023-01-06T01:00:32.502Z,11.1
2023-01-06T01:01:32.609Z,11
2023-01-06T01:02:32.653Z,11
2023-01-06T01:03:32.507Z,11.1
2023-01-06T01:04:32.506Z,11.1
2023-01-06T01:05:32.504Z,11.1
2023-01-06T01:06:32.544Z,11.1
2023-01-06T01:07:32.515Z,11
2023-01-06T01:08:32.502Z,11.1
2023-01-06T01:09:32.498Z,11
2023-01-06T01:10:32.507Z,11.1
2023-01-06T01:11:32.540Z,11.1
2023-01-06T01:12:32.537Z,11.1
2023-01-06T01:13:32.500Z,11.1
2023-01-06T01:14:32.513Z,11.1
2023-01-06T01:15:32.678Z,11.1
2023-01-06T01:16:32.513Z,11.1
2023-01-06T01:17:32.514Z,11.1
2023-01-06T01:18:32.496Z,11.1
2023-01-06T01:19:32.498Z,11.1
2023-01-06T01:20:32.500Z,11.1
2023-01-06T01:21:32.529Z,11.1
2023-01-06T01:22:32.591Z,11.1
2023-01-06T01:23:32.530Z,11.1
2023-01-06T01:24:32.605Z,11.1
2023-01-06T01:25:32.505Z,11.1
2023-01-06T01:26:32.507Z,11.1
2023-01-06T01:27:32.508Z,11
2023-01-06T01:28:32.510Z,11.1
2023-01-06T01:29:32.489Z,11
2023-01-06T01:30:32.497Z,11
2023-01-06T01:31:32.524Z,11
2023-01-06T01:32:32.496Z,11.1
2023-01-06T01:33:32.505Z,11
2023-01-06T01:34:32.491Z,11
2023-01-06T01:35:32.502Z,11
2023-01-06T01:36:32.503Z,11
2023-01-06T01:37:32.588Z,11
2023-01-06T01:38:32.491Z,11
2023-01-06T01:39:32.499Z,11
2023-01-06T01:40:32.507Z,11
2023-01-06T01:41:32.488Z,11
2023-01-06T01:42:32.492Z,11
2023-01-06T01:43:32.504Z,11
2023-01-06T01:44:32.502Z,11
2023-01-06T01:45:32.519Z,11
2023-01-06T01:46:32.714Z,11
2023-01-06T01:47:32.508Z,11.1
2023-01-06T01:48:32.508Z,11
2023-01-06T01:49:32.620Z,11
2023-01-06T01:50:32.495Z,11
2023-01-06T01:51:32.722Z,11
2023-01-06T01:52:32.582Z,11
2023-01-06T01:53:32.503Z,11
2023-01-06T01:54:32.494Z,11.1
2023-01-06T01:55:32.510Z,11
2023-01-06T01:56:32.519Z,11
2023-01-06T01:57:32.519Z,11
2023-01-06T01:58:32.495Z,11
2023-01-06T01:59:32.581Z,11
2023-01-06T02:00:32.501Z,11
2023-01-06T02:01:32.648Z,11
2023-01-06T02:02:32.607Z,10.9
2023-01-06T02:03:32.494Z,10.9
2023-01-06T02:04:32.505Z,10.9
2023-01-06T02:05:42.512Z,10.9
2023-01-06T02:06:32.509Z,10.9
2023-01-06T02:07:32.504Z,10.9
2023-01-06T02:08:32.506Z,10.9
2023-01-06T02:09:32.566Z,10.9
2023-01-06T02:10:32.543Z,10.9
2023-01-06T02:11:32.497Z,10.9
2023-01-06T02:12:32.516Z,10.9
2023-01-06T02:13:32.502Z,10.9
2023-01-06T02:14:32.509Z,10.9
2023-01-06T02:15:32.543Z,10.8
2023-01-06T02:16:32.507Z,10.8
2023-01-06T02:17:32.626Z,10.8
2023-01-06T02:18:32.510Z,10.8
2023-01-06T02:19:32.493Z,10.8
2023-01-06T02:20:32.501Z,10.8
2023-01-06T02:21:32.502Z,10.8
2023-01-06T02:22:32.494Z,10.8
2023-01-06T02:23:32.508Z,10.8
2023-01-06T02:24:32.500Z,10.8
2023-01-06T02:25:32.515Z,10.8
2023-01-06T02:26:32.493Z,10.7
2023-01-06T02:27:32.505Z,10.8
2023-01-06T02:28:32.513Z,10.8
2023-01-06T02:29:32.499Z,10.8
2023-01-06T02:30:32.515Z,10.8
2023-01-06T02:31:32.571Z,10.7
2023-01-06T02:32:32.509Z,10.7
2023-01-06T02:33:32.512Z,10.7
2023-01-06T02:34:32.500Z,10.7
2023-01-06T02:35:32.503Z,10.7
2023-01-06T02:36:32.506Z,10.7
2023-01-06T02:37:32.503Z,10.7
2023-01-06T02:38:32.534Z,10.7
2023-01-06T02:39:32.496Z,10.7
2023-01-06T02:40:32.505Z,10.7
2023-01-06T02:41:32.511Z,10.7
2023-01-06T02:42:32.521Z,10.7
2023-01-06T02:43:32.526Z,10.7
2023-01-06T02:44:32.593Z,10.7
2023-01-06T02:45:32.504Z,10.7
2023-01-06T02:46:32.642Z,10.7
2023-01-06T02:47:32.495Z,10.7
2023-01-06T02:48:32.653Z,10.7
2023-01-06T02:49:32.501Z,10.7
2023-01-06T02:50:32.488Z,10.8
2023-01-06T02:51:32.663Z,10.7
2023-01-06T02:53:32.506Z,10.7
2023-01-06T02:54:32.498Z,10.7
2023-01-06T02:55:32.494Z,10.7
2023-01-06T02:56:32.513Z,10.7
2023-01-06T02:57:32.530Z,10.7
2023-01-06T02:58:32.505Z,10.7
2023-01-06T02:59:32.518Z,10.7
2023-01-06T03:00:32.500Z,10.6
2023-01-06T03:01:32.628Z,10.7
2023-01-06T03:02:32.508Z,10.6
2023-01-06T03:03:32.509Z,10.6
2023-01-06T03:04:32.536Z,10.6
2023-01-06T03:05:28.084Z,10.6
2023-01-06T03:06:32.522Z,10.6
2023-01-06T03:07:32.513Z,10.6
2023-01-06T03:08:32.498Z,10.6
2023-01-06T03:10:32.512Z,10.6
2023-01-06T03:11:32.528Z,10.6
2023-01-06T03:12:32.493Z,10.6
2023-01-06T03:13:32.507Z,10.6
2023-01-06T03:14:32.532Z,10.6
2023-01-06T03:15:48.920Z,10.6
2023-01-06T03:16:32.526Z,10.6
2023-01-06T03:17:32.524Z,10.6
2023-01-06T03:18:32.507Z,10.6
2023-01-06T03:19:32.640Z,10.6
2023-01-06T03:20:32.511Z,10.6
2023-01-06T03:21:32.491Z,10.7
2023-01-06T03:22:32.507Z,10.6
2023-01-06T03:23:32.507Z,10.6
2023-01-06T03:24:32.530Z,10.6
2023-01-06T03:25:32.499Z,10.6
2023-01-06T03:26:32.507Z,10.7
2023-01-06T03:27:32.512Z,10.7
2023-01-06T03:28:32.512Z,10.6
2023-01-06T03:29:32.504Z,10.6
2023-01-06T03:30:32.501Z,10.6
2023-01-06T03:31:32.553Z,10.7
2023-01-06T03:32:32.512Z,10.7
2023-01-06T03:33:32.510Z,10.7
2023-01-06T03:34:32.524Z,10.7
2023-01-06T03:35:32.507Z,10.7
2023-01-06T03:36:32.515Z,10.8
2023-01-06T03:37:32.520Z,10.7
2023-01-06T03:38:32.525Z,10.7
2023-01-06T03:39:32.527Z,10.7
2023-01-06T03:40:32.510Z,10.6
2023-01-06T03:41:32.525Z,10.6
2023-01-06T03:42:36.450Z,10.6
2023-01-06T03:43:32.513Z,10.6
2023-01-06T03:44:32.514Z,10.6
2023-01-06T03:45:32.502Z,10.6
2023-01-06T03:46:32.612Z,10.6
2023-01-06T03:47:32.504Z,10.5
2023-01-06T03:48:32.522Z,10.5
2023-01-06T03:49:32.513Z,10.5
2023-01-06T03:50:32.629Z,10.5
2023-01-06T03:51:32.509Z,10.5
2023-01-06T03:52:32.508Z,10.5
2023-01-06T03:53:32.527Z,10.5
2023-01-06T03:54:32.505Z,10.5
2023-01-06T03:55:32.513Z,10.5
2023-01-06T03:56:32.503Z,10.5
2023-01-06T03:57:32.646Z,10.5
2023-01-06T03:58:32.503Z,10.5
2023-01-06T03:59:32.525Z,10.6
2023-01-06T04:00:32.633Z,10.6
2023-01-06T04:01:32.619Z,10.5
2023-01-06T04:02:32.499Z,10.5
2023-01-06T04:03:32.548Z,10.5
2023-01-06T04:04:32.511Z,10.5
2023-01-06T04:05:32.520Z,10.6
2023-01-06T04:06:32.655Z,10.5
2023-01-06T04:07:32.516Z,10.5
2023-01-06T04:08:32.517Z,10.5
2023-01-06T04:09:32.516Z,10.4
2023-01-06T04:10:32.532Z,10.4
2023-01-06T04:11:32.512Z,10.4
2023-01-06T04:12:32.510Z,10.4
2023-01-06T04:13:32.519Z,10.4
2023-01-06T04:14:32.522Z,10.4
2023-01-06T04:15:55.048Z,10.4
2023-01-06T04:16:32.600Z,10.5
2023-01-06T04:17:32.520Z,10.5
2023-01-06T04:18:32.512Z,10.5
2023-01-06T04:19:32.513Z,10.5
2023-01-06T04:20:32.515Z,10.4
2023-01-06T04:21:32.631Z,10.5
2023-01-06T04:22:32.531Z,10.4
2023-01-06T04:23:32.520Z,10.4
2023-01-06T04:24:32.501Z,10.4
2023-01-06T04:25:32.514Z,10.5
2023-01-06T04:27:32.531Z,10.5
2023-01-06T04:28:32.520Z,10.5
2023-01-06T04:29:32.524Z,10.5
2023-01-06T04:30:32.497Z,10.4
2023-01-06T04:31:35.251Z,10.4
2023-01-06T04:32:32.516Z,10.5
2023-01-06T04:33:32.511Z,10.5
2023-01-06T04:34:32.545Z,10.4
2023-01-06T04:35:32.519Z,10.5
2023-01-06T04:36:32.494Z,10.5
2023-01-06T04:37:32.519Z,10.5
2023-01-06T04:38:32.561Z,10.5
2023-01-06T04:39:32.540Z,10.4
2023-01-06T04:40:32.522Z,10.5
2023-01-06T04:41:32.527Z,10.5
2023-01-06T04:42:32.505Z,10.6
2023-01-06T04:43:32.548Z,10.5
2023-01-06T04:44:32.522Z,10.5
2023-01-06T04:45:32.608Z,10.5
2023-01-06T04:46:32.511Z,10.5
2023-01-06T04:47:32.541Z,10.5
2023-01-06T04:48:32.545Z,10.5
2023-01-06T04:49:32.541Z,10.5
2023-01-06T04:50:32.520Z,10.5
2023-01-06T04:51:32.507Z,10.4
2023-01-06T04:52:32.640Z,10.4
2023-01-06T04:53:32.518Z,10.4
2023-01-06T04:55:32.515Z,10.4
2023-01-06T04:56:32.520Z,10.4
2023-01-06T04:57:32.501Z,10.4
2023-01-06T04:58:32.543Z,10.3
2023-01-06T04:59:32.527Z,10.3
2023-01-06T05:00:32.547Z,10.3
2023-01-06T05:01:32.693Z,10.3
2023-01-06T05:02:32.500Z,10.3
2023-01-06T05:03:32.537Z,10.3
2023-01-06T05:04:46.634Z,10.3
2023-01-06T05:05:32.521Z,10.3
2023-01-06T05:06:32.505Z,10.3
2023-01-06T05:07:32.508Z,10.3
2023-01-06T05:08:32.520Z,10.3
2023-01-06T05:09:32.514Z,10.3
2023-01-06T05:10:32.517Z,10.3
2023-01-06T05:11:32.510Z,10.3
2023-01-06T05:12:32.521Z,10.3
2023-01-06T05:13:32.511Z,10.3
2023-01-06T05:14:32.503Z,10.3
2023-01-06T05:15:26.002Z,10.4
2023-01-06T05:16:32.623Z,10.3
2023-01-06T05:17:32.518Z,10.3
2023-01-06T05:18:32.507Z,10.3
2023-01-06T05:19:32.546Z,10.3
2023-01-06T05:20:32.515Z,10.3
2023-01-06T05:21:33.131Z,10.4
2023-01-06T05:22:32.500Z,10.4
2023-01-06T05:23:32.647Z,10.5
2023-01-06T05:24:32.532Z,10.5
2023-01-06T05:25:32.516Z,10.5
2023-01-06T05:26:32.518Z,10.5
2023-01-06T05:27:32.529Z,10.5
2023-01-06T05:28:32.547Z,10.5
2023-01-06T05:29:32.524Z,10.5
2023-01-06T05:30:32.517Z,10.4
2023-01-06T05:31:32.568Z,10.4
2023-01-06T05:32:32.520Z,10.4
2023-01-06T05:33:32.520Z,10.4
2023-01-06T05:34:32.512Z,10.4
2023-01-06T05:35:32.523Z,10.4
2023-01-06T05:37:32.793Z,10.4
2023-01-06T05:38:34.253Z,10.4
2023-01-06T05:39:32.533Z,10.5
2023-01-06T05:40:32.520Z,10.4
2023-01-06T05:41:32.530Z,10.4
2023-01-06T05:42:32.510Z,10.4
2023-01-06T05:43:32.513Z,10.3
2023-01-06T05:44:32.515Z,10.4
2023-01-06T05:45:32.587Z,10.4
2023-01-06T05:46:32.510Z,10.4
2023-01-06T05:47:32.511Z,10.5
2023-01-06T05:48:32.523Z,10.5
2023-01-06T05:49:32.500Z,10.5
2023-01-06T05:50:32.525Z,10.5
2023-01-06T05:51:32.509Z,10.5
2023-01-06T05:52:32.517Z,10.5
2023-01-06T05:53:32.519Z,10.5
2023-01-06T05:54:32.532Z,10.6
2023-01-06T05:55:32.518Z,10.6
2023-01-06T05:56:32.505Z,10.6
2023-01-06T05:57:32.506Z,10.6
2023-01-06T05:58:32.500Z,10.6
2023-01-06T05:59:32.540Z,10.6
2023-01-06T06:00:32.509Z,10.6
2023-01-06T06:01:32.583Z,10.6
2023-01-06T06:02:32.575Z,10.6
2023-01-06T06:03:32.588Z,10.5
2023-01-06T06:04:32.521Z,10.5
2023-01-06T06:05:32.520Z,10.6
2023-01-06T06:06:32.538Z,10.6
2023-01-06T06:07:32.523Z,10.6
2023-01-06T06:09:32.528Z,10.5
2023-01-06T06:10:32.514Z,10.6
2023-01-06T06:11:32.525Z,10.6
2023-01-06T06:12:32.512Z,10.6
2023-01-06T06:13:32.668Z,10.6
2023-01-06T06:14:32.519Z,10.5
2023-01-06T06:15:32.509Z,10.5
2023-01-06T06:16:32.580Z,10.5
2023-01-06T06:17:32.503Z,10.5
2023-01-06T06:18:32.514Z,10.5
2023-01-06T06:19:32.517Z,10.5
2023-01-06T06:20:32.508Z,10.5
2023-01-06T06:21:32.525Z,10.4
2023-01-06T06:22:32.538Z,10.4
2023-01-06T06:23:32.517Z,10.5
2023-01-06T06:24:32.526Z,10.5
2023-01-06T06:25:32.647Z,10.5
2023-01-06T06:26:32.519Z,10.5
2023-01-06T06:28:32.517Z,10.4
2023-01-06T06:29:32.512Z,10.4
2023-01-06T06:30:32.531Z,10.4
2023-01-06T06:31:32.597Z,10.4
2023-01-06T06:32:32.512Z,10.5
2023-01-06T06:33:32.513Z,10.5
2023-01-06T06:34:32.515Z,10.4
2023-01-06T06:35:32.514Z,10.5
2023-01-06T06:36:32.500Z,10.5
2023-01-06T06:37:32.505Z,10.6
2023-01-06T06:38:32.565Z,10.6
2023-01-06T06:39:32.527Z,10.6
2023-01-06T06:40:32.530Z,10.5
2023-01-06T06:41:32.512Z,10.6
2023-01-06T06:42:32.542Z,10.6
2023-01-06T06:43:32.505Z,10.5
2023-01-06T06:44:32.559Z,10.5
2023-01-06T06:45:32.578Z,10.6
2023-01-06T06:46:32.526Z,10.6
2023-01-06T06:47:32.528Z,10.6
2023-01-06T06:48:32.567Z,10.5
2023-01-06T06:49:32.576Z,10.6
2023-01-06T06:50:32.656Z,10.6
2023-01-06T06:51:32.605Z,10.6
2023-01-06T06:52:32.700Z,10.6
2023-01-06T06:53:32.778Z,10.5
2023-01-06T06:54:32.515Z,10.5
2023-01-06T06:55:32.528Z,10.5
2023-01-06T06:56:32.995Z,10.5
2023-01-06T06:57:32.520Z,10.5
2023-01-06T06:58:32.548Z,10.5
2023-01-06T06:59:32.524Z,10.5
2023-01-06T07:00:32.514Z,10.6
2023-01-06T07:01:32.711Z,10.6
2023-01-06T07:02:32.523Z,10.6
2023-01-06T07:03:32.519Z,10.6
2023-01-06T07:04:32.662Z,10.6
2023-01-06T07:05:32.517Z,10.6
2023-01-06T07:06:32.517Z,10.6
2023-01-06T07:07:32.532Z,10.6
2023-01-06T07:08:32.525Z,10.6
2023-01-06T07:09:32.529Z,10.6
2023-01-06T07:10:32.534Z,10.5
2023-01-06T07:11:32.533Z,10.5
2023-01-06T07:12:32.549Z,10.6
2023-01-06T07:13:32.521Z,10.6
2023-01-06T07:14:32.521Z,10.6
2023-01-06T07:15:32.567Z,10.6
2023-01-06T07:16:32.553Z,10.6
2023-01-06T07:17:32.535Z,10.5
2023-01-06T07:18:32.527Z,10.5
2023-01-06T07:19:32.532Z,10.5
2023-01-06T07:20:32.530Z,10.5
2023-01-06T07:21:32.520Z,10.4
2023-01-06T07:22:32.542Z,10.5
2023-01-06T07:23:32.512Z,10.6
2023-01-06T07:24:32.529Z,10.6
2023-01-06T07:25:32.550Z,10.5
2023-01-06T07:26:32.514Z,10.5
2023-01-06T07:27:32.665Z,10.5
2023-01-06T07:28:32.536Z,10.5
2023-01-06T07:29:32.536Z,10.5
2023-01-06T07:30:32.538Z,10.6
2023-01-06T07:31:32.601Z,10.5
2023-01-06T07:32:32.542Z,10.5
2023-01-06T07:33:32.530Z,10.5
2023-01-06T07:34:32.520Z,10.6
2023-01-06T07:35:32.555Z,10.6
2023-01-06T07:37:32.528Z,10.5
2023-01-06T07:38:32.517Z,10.5
2023-01-06T07:39:32.532Z,10.5
2023-01-06T07:40:32.523Z,10.5
2023-01-06T07:41:32.578Z,10.6
2023-01-06T07:42:32.545Z,10.6
2023-01-06T07:43:32.528Z,10.6
2023-01-06T07:44:32.521Z,10.6
2023-01-06T07:45:32.523Z,10.6
2023-01-06T07:46:32.569Z,10.6
2023-01-06T07:47:32.552Z,10.6
2023-01-06T07:48:32.533Z,10.7
2023-01-06T07:49:32.523Z,10.7
2023-01-06T07:50:32.550Z,10.7
2023-01-06T07:51:32.535Z,10.6
2023-01-06T07:52:32.546Z,10.7
2023-01-06T07:53:32.567Z,10.6
2023-01-06T07:54:32.555Z,10.7
2023-01-06T07:55:32.524Z,10.7
2023-01-06T07:56:32.516Z,10.7
2023-01-06T07:57:32.560Z,10.7
2023-01-06T07:58:32.641Z,10.7
2023-01-06T07:59:32.514Z,10.7
2023-01-06T08:00:32.545Z,10.7
2023-01-06T08:01:32.641Z,10.7
2023-01-06T08:02:32.584Z,10.7
2023-01-06T08:03:32.542Z,10.7
2023-01-06T08:04:32.515Z,10.8
2023-01-06T08:05:32.559Z,10.8
2023-01-06T08:06:32.520Z,10.8
2023-01-06T08:07:32.552Z,10.9
2023-01-06T08:08:32.522Z,10.9
2023-01-06T08:09:32.530Z,10.9
2023-01-06T08:10:32.529Z,10.9
2023-01-06T08:11:32.539Z,10.9
2023-01-06T08:12:32.556Z,11
2023-01-06T08:13:32.532Z,10.9
2023-01-06T08:14:32.572Z,10.9
2023-01-06T08:15:32.582Z,10.9
2023-01-06T08:16:32.654Z,11
2023-01-06T08:17:32.541Z,11
2023-01-06T08:18:32.521Z,10.9
2023-01-06T08:19:32.536Z,11
2023-01-06T08:20:32.520Z,11
2023-01-06T08:21:32.565Z,11
2023-01-06T08:22:32.537Z,11
2023-01-06T08:23:32.515Z,11
2023-01-06T08:24:32.782Z,11
2023-01-06T08:25:32.547Z,11.1
2023-01-06T08:26:32.520Z,11.1
2023-01-06T08:27:32.548Z,11.1
2023-01-06T08:28:32.534Z,11.1
2023-01-06T08:29:32.650Z,11.1
2023-01-06T08:30:32.523Z,11.2
2023-01-06T08:31:32.596Z,11.3
2023-01-06T08:32:32.538Z,11.4
2023-01-06T08:33:32.524Z,11.4
2023-01-06T08:34:32.566Z,11.4
2023-01-06T08:35:32.514Z,11.4
2023-01-06T08:36:47.999Z,11.6
2023-01-06T08:37:32.578Z,11.6
2023-01-06T08:38:32.498Z,11.4
2023-01-06T08:39:32.524Z,11.6
2023-01-06T08:40:32.538Z,11.6
2023-01-06T08:41:32.535Z,11.6
2023-01-06T08:42:32.551Z,11.8
2023-01-06T08:43:32.529Z,11.8
2023-01-06T08:44:32.533Z,11.8
2023-01-06T08:45:32.520Z,11.8
2023-01-06T08:46:32.608Z,11.7
2023-01-06T08:47:32.540Z,11.7
2023-01-06T08:49:32.531Z,11.9
2023-01-06T08:50:32.514Z,11.9
2023-01-06T08:51:32.522Z,11.9
2023-01-06T08:52:32.551Z,11.8
2023-01-06T08:53:32.533Z,11.7
2023-01-06T08:54:32.535Z,11.8
2023-01-06T08:55:32.510Z,11.9
2023-01-06T08:56:32.550Z,11.9
2023-01-06T08:57:32.543Z,11.8
2023-01-06T08:58:32.517Z,11.9
2023-01-06T08:59:32.540Z,11.9
2023-01-06T09:00:32.653Z,11.9
2023-01-06T09:01:32.670Z,12
2023-01-06T09:02:32.545Z,12
2023-01-06T09:03:32.522Z,12
2023-01-06T09:04:32.533Z,12.1
2023-01-06T09:05:32.525Z,12.1
2023-01-06T09:06:32.519Z,12
2023-01-06T09:07:32.534Z,12.1
2023-01-06T09:08:32.521Z,12.1
2023-01-06T09:09:32.517Z,12
2023-01-06T09:10:32.519Z,12
2023-01-06T09:11:32.537Z,12.1
2023-01-06T09:12:32.565Z,12.2
2023-01-06T09:14:32.521Z,12
2023-01-06T09:16:32.551Z,12
2023-01-06T09:17:32.546Z,12
2023-01-06T09:18:32.519Z,12
2023-01-06T09:19:32.521Z,12.1
2023-01-06T09:20:32.516Z,12.1
2023-01-06T09:21:32.538Z,12.1
2023-01-06T09:22:32.538Z,12.1
2023-01-06T09:23:32.515Z,12.1
2023-01-06T09:24:32.526Z,12
2023-01-06T09:25:32.559Z,12.1
2023-01-06T09:26:32.540Z,12.1
2023-01-06T09:27:32.587Z,12.1
2023-01-06T09:28:32.515Z,12.1
2023-01-06T09:29:32.527Z,12.2
2023-01-06T09:30:32.525Z,12.2
2023-01-06T09:31:32.649Z,12.1
2023-01-06T09:32:32.521Z,12.2
2023-01-06T09:33:32.519Z,12.2
2023-01-06T09:34:32.518Z,12.2
2023-01-06T09:35:32.645Z,12.2
2023-01-06T09:36:54.012Z,12.2
2023-01-06T09:37:32.541Z,12.3
2023-01-06T09:38:32.530Z,12.4
2023-01-06T09:39:32.525Z,12.4
2023-01-06T09:40:32.621Z,12.4
2023-01-06T09:41:32.588Z,12.5
2023-01-06T09:42:32.683Z,12.5
2023-01-06T09:43:32.575Z,12.5
2023-01-06T09:44:32.699Z,12.6
2023-01-06T09:45:32.575Z,12.6
2023-01-06T09:46:32.595Z,12.7
2023-01-06T09:47:32.902Z,12.6
2023-01-06T09:48:32.627Z,12.7
2023-01-06T09:49:32.516Z,12.6
2023-01-06T09:50:32.529Z,12.6
2023-01-06T09:51:32.546Z,12.7
2023-01-06T09:52:32.550Z,12.8
2023-01-06T09:53:32.525Z,12.8
2023-01-06T09:54:32.535Z,12.8
2023-01-06T09:55:32.541Z,12.9
2023-01-06T09:56:32.543Z,12.9
2023-01-06T09:57:32.544Z,12.8
2023-01-06T09:58:32.529Z,12.8
2023-01-06T09:59:32.567Z,12.9
2023-01-06T10:00:32.546Z,12.9
2023-01-06T10:01:32.659Z,12.9
2023-01-06T10:02:32.710Z,12.9
2023-01-06T10:03:32.543Z,12.9
2023-01-06T10:04:32.548Z,12.9
2023-01-06T10:05:32.519Z,12.9
2023-01-06T10:06:32.531Z,13
2023-01-06T10:07:32.577Z,13
2023-01-06T10:08:32.549Z,13
2023-01-06T10:09:32.539Z,13
2023-01-06T10:10:32.551Z,13
2023-01-06T10:11:32.570Z,13
2023-01-06T10:12:32.568Z,13.1
2023-01-06T10:13:32.526Z,13.1
2023-01-06T10:14:32.534Z,13
2023-01-06T10:15:32.534Z,13
2023-01-06T10:16:32.609Z,12.9
2023-01-06T10:17:32.547Z,13
2023-01-06T10:18:32.545Z,13.1
2023-01-06T10:19:32.540Z,13.1
2023-01-06T10:20:32.554Z,13
2023-01-06T10:21:32.551Z,13
2023-01-06T10:22:32.560Z,13
2023-01-06T10:23:32.547Z,13.1
2023-01-06T10:24:32.561Z,13
2023-01-06T10:25:32.529Z,13
2023-01-06T10:26:32.536Z,13
2023-01-06T10:27:32.546Z,13
2023-01-06T10:28:32.536Z,12.9
2023-01-06T10:29:32.548Z,13
2023-01-06T10:30:33.868Z,13
2023-01-06T10:31:32.595Z,13
2023-01-06T10:32:32.577Z,13
2023-01-06T10:33:32.664Z,13
2023-01-06T10:34:32.537Z,13
2023-01-06T10:35:32.535Z,13
2023-01-06T10:36:43.580Z,13
2023-01-06T10:37:37.103Z,12.9
2023-01-06T10:38:32.526Z,12.9
2023-01-06T10:39:32.535Z,12.9
2023-01-06T10:40:32.530Z,13
2023-01-06T10:41:32.558Z,13
2023-01-06T10:42:32.583Z,13.1
2023-01-06T10:43:32.554Z,13
2023-01-06T10:44:32.573Z,13.1
2023-01-06T10:45:32.528Z,13
2023-01-06T10:46:32.711Z,13
2023-01-06T10:47:32.532Z,13
2023-01-06T10:48:32.550Z,13
2023-01-06T10:49:32.565Z,13
2023-01-06T10:50:32.545Z,13
2023-01-06T10:51:32.531Z,13
2023-01-06T10:52:32.530Z,13
2023-01-06T10:53:32.535Z,12.9
2023-01-06T10:54:32.522Z,12.8
2023-01-06T10:55:32.525Z,12.7
2023-01-06T10:56:32.528Z,12.6
2023-01-06T10:57:32.531Z,12.6
2023-01-06T10:58:32.524Z,12.6
2023-01-06T10:59:32.535Z,12.6
2023-01-06T11:00:32.635Z,12.4
2023-01-06T11:01:34.775Z,12.4
2023-01-06T11:02:32.803Z,12.3
2023-01-06T11:03:34.468Z,12.5
2023-01-06T11:04:32.640Z,12.4
2023-01-06T11:05:32.549Z,12.4
2023-01-06T11:06:32.534Z,12.4
2023-01-06T11:07:32.576Z,12.4
2023-01-06T11:08:32.550Z,12.4
2023-01-06T11:09:32.561Z,12.5
2023-01-06T11:10:32.546Z,12.5
2023-01-06T11:11:32.517Z,12.4
2023-01-06T11:12:32.546Z,12.5
2023-01-06T11:13:34.422Z,12.5
2023-01-06T11:14:32.569Z,12.5
2023-01-06T11:15:32.539Z,12.6
2023-01-06T11:16:32.659Z,12.6
2023-01-06T11:17:32.554Z,12.6
2023-01-06T11:18:32.543Z,12.6
2023-01-06T11:19:32.547Z,12.7
2023-01-06T11:21:32.551Z,12.7
2023-01-06T11:22:32.647Z,12.8
2023-01-06T11:23:32.536Z,12.8
2023-01-06T11:24:32.533Z,12.9
2023-01-06T11:25:32.570Z,12.8
2023-01-06T11:26:32.534Z,12.9
2023-01-06T11:27:32.545Z,12.9
2023-01-06T11:28:32.541Z,12.9
2023-01-06T11:29:32.545Z,12.9
2023-01-06T11:30:32.538Z,12.9
2023-01-06T11:31:32.600Z,12.9
2023-01-06T11:32:32.545Z,12.8
2023-01-06T11:33:32.539Z,12.8
2023-01-06T11:34:32.542Z,12.8
2023-01-06T11:35:32.657Z,12.8
2023-01-06T11:36:32.548Z,12.9
2023-01-06T11:37:32.556Z,12.9
2023-01-06T11:38:32.580Z,12.9
2023-01-06T11:39:32.911Z,12.8
2023-01-06T11:40:32.594Z,12.9
2023-01-06T11:41:32.548Z,12.8
2023-01-06T11:42:32.564Z,12.9
2023-01-06T11:43:32.531Z,12.9
2023-01-06T11:44:32.595Z,12.9
2023-01-06T11:45:32.665Z,12.9
2023-01-06T11:46:32.554Z,12.9
2023-01-06T11:47:32.564Z,12.9
2023-01-06T11:48:32.569Z,13
2023-01-06T11:49:32.545Z,12.9
2023-01-06T11:50:32.529Z,12.9
2023-01-06T11:51:32.522Z,13
2023-01-06T11:52:32.559Z,13
2023-01-06T11:53:32.564Z,13
2023-01-06T11:54:32.544Z,12.9
2023-01-06T11:55:32.706Z,13
2023-01-06T11:56:32.550Z,13
2023-01-06T11:57:32.533Z,13
2023-01-06T11:58:32.550Z,13
2023-01-06T11:59:32.538Z,13
2023-01-06T12:00:32.532Z,13
2023-01-06T12:01:32.669Z,13
2023-01-06T12:02:32.549Z,13
2023-01-06T12:03:32.588Z,13
2023-01-06T12:04:32.545Z,13
2023-01-06T12:05:32.545Z,12.9
2023-01-06T12:06:32.686Z,13
2023-01-06T12:07:32.531Z,13
2023-01-06T12:08:32.563Z,13
2023-01-06T12:09:32.531Z,13
2023-01-06T12:10:32.565Z,12.9
2023-01-06T12:11:32.546Z,12.8
2023-01-06T12:12:32.536Z,12.8
2023-01-06T12:13:39.796Z,12.8
2023-01-06T12:14:32.544Z,12.9
2023-01-06T12:15:32.556Z,12.8
2023-01-06T12:16:32.644Z,12.7
2023-01-06T12:17:32.717Z,12.8
2023-01-06T12:18:32.556Z,12.8
2023-01-06T12:19:32.558Z,12.7
2023-01-06T12:20:32.550Z,12.8
2023-01-06T12:21:32.547Z,12.7
2023-01-06T12:22:32.561Z,12.7
2023-01-06T12:23:32.553Z,12.7
2023-01-06T12:24:32.575Z,12.7
2023-01-06T12:25:32.546Z,12.8
2023-01-06T12:26:32.578Z,12.8
2023-01-06T12:27:32.549Z,12.7
2023-01-06T12:28:32.568Z,12.7
2023-01-06T12:29:32.546Z,12.7
2023-01-06T12:30:32.630Z,12.7
2023-01-06T12:31:32.544Z,12.7
2023-01-06T12:32:32.543Z,12.7
2023-01-06T12:33:32.547Z,12.6
2023-01-06T12:34:32.527Z,12.7
2023-01-06T12:35:32.549Z,12.6
2023-01-06T12:36:32.551Z,12.7
2023-01-06T12:37:32.659Z,12.7
2023-01-06T12:38:32.559Z,12.8
2023-01-06T12:39:32.541Z,12.7
2023-01-06T12:40:32.562Z,12.7
2023-01-06T12:41:32.548Z,12.7
2023-01-06T12:42:32.549Z,12.7
2023-01-06T12:43:32.532Z,12.8
2023-01-06T12:44:32.571Z,12.8
2023-01-06T12:45:32.577Z,12.8
2023-01-06T12:46:32.648Z,12.8
2023-01-06T12:47:32.568Z,12.7
2023-01-06T12:49:32.550Z,12.7
2023-01-06T12:50:32.545Z,12.7
2023-01-06T12:51:32.590Z,12.8
2023-01-06T12:52:32.566Z,12.7
2023-01-06T12:53:32.540Z,12.7
2023-01-06T12:54:32.559Z,12.7
2023-01-06T12:55:32.588Z,12.7
2023-01-06T12:56:32.546Z,12.7
2023-01-06T12:57:42.544Z,12.6
2023-01-06T12:58:32.557Z,12.6
2023-01-06T12:59:32.545Z,12.5
2023-01-06T13:00:32.548Z,12.5
2023-01-06T13:01:32.666Z,12.5
2023-01-06T13:02:33.483Z,12.6
2023-01-06T13:03:32.554Z,12.5
2023-01-06T13:04:32.626Z,12.5
2023-01-06T13:05:32.564Z,12.4
2023-01-06T13:06:32.542Z,12.4
2023-01-06T13:07:32.548Z,12.4
2023-01-06T13:08:32.680Z,12.4
2023-01-06T13:09:32.700Z,12.4
2023-01-06T13:10:32.603Z,12.4
2023-01-06T13:11:32.548Z,12.4
2023-01-06T13:12:32.553Z,12.4
2023-01-06T13:13:32.555Z,12.4
2023-01-06T13:14:32.570Z,12.4
2023-01-06T13:15:32.550Z,12.4
2023-01-06T13:16:32.586Z,12.4
2023-01-06T13:17:32.543Z,12.4
2023-01-06T13:18:32.549Z,12.4
2023-01-06T13:19:32.550Z,12.4
2023-01-06T13:20:32.553Z,12.4
2023-01-06T13:21:32.539Z,12.4
2023-01-06T13:22:32.561Z,12.4
2023-01-06T13:23:32.558Z,12.5
2023-01-06T13:24:32.557Z,12.5
2023-01-06T13:25:32.551Z,12.5
2023-01-06T13:26:32.591Z,12.4
2023-01-06T13:27:32.544Z,12.4
2023-01-06T13:28:32.558Z,12.4
2023-01-06T13:29:32.539Z,12.4
2023-01-06T13:31:32.540Z,12.4
2023-01-06T13:32:32.557Z,12.3
2023-01-06T13:33:32.547Z,12.4
2023-01-06T13:34:32.567Z,12.5
2023-01-06T13:35:32.543Z,12.5
2023-01-06T13:36:32.552Z,12.6
2023-01-06T13:37:32.540Z,12.5
2023-01-06T13:38:32.538Z,12.4
2023-01-06T13:39:32.713Z,12.5
2023-01-06T13:40:32.563Z,12.5